sensor_id;sensor_type;location;lat;lon;timestamp;pressure;altitude;pressure_sealevel;temperature;humidity
19108;BME280;9686;48.832;9.126;2022-11-15T00:01:31;97944.91;;;11.98;nan
19108;BME280;9686;48.832;9.126;2022-11-15T00:03:56;97945.78;;;11.96;nan
19108;BME280;9686;48.832;9.126;2022-11-15T00:06:22;97941.53;;;11.90;nan
19108;BME280;9686;48.832;9.126;2022-11-15T00:08:47;97937.03;;;12.00;nan
19108;BME280;9686;48.832;9.126;2022-11-15T00:11:12;97940.50;;;12.00;nan
19108;BME280;9686;48.832;9.126;2022-11-15T00:13:39;97937.72;;;12.11;nan
19108;BME280;9686;48.832;9.126;2022-11-15T00:16:05;97939.63;;;12.01;nan
19108;BME280;9686;48.832;9.126;2022-11-15T00:18:30;97936.16;;;12.01;nan
19108;BME280;9686;48.832;9.126;2022-11-15T00:21:01;97944.16;;;11.89;nan
19108;BME280;9686;48.832;9.126;2022-11-15T00:23:27;97939.00;;;11.86;nan
19108;BME280;9686;48.832;9.126;2022-11-15T00:25:57;97936.34;;;11.87;nan
19108;BME280;9686;48.832;9.126;2022-11-15T00:28:23;97937.16;;;11.91;nan
19108;BME280;9686;48.832;9.126;2022-11-15T00:30:48;97935.44;;;11.90;nan
19108;BME280;9686;48.832;9.126;2022-11-15T00:33:14;97927.34;;;12.07;nan
19108;BME280;9686;48.832;9.126;2022-11-15T00:35:39;97928.19;;;12.07;nan
19108;BME280;9686;48.832;9.126;2022-11-15T00:38:04;97927.06;;;12.23;nan
19108;BME280;9686;48.832;9.126;2022-11-15T00:40:30;97919.81;;;12.39;nan
19108;BME280;9686;48.832;9.126;2022-11-15T00:42:55;97921.63;;;12.34;nan
19108;BME280;9686;48.832;9.126;2022-11-15T00:45:22;97917.88;;;12.49;nan
19108;BME280;9686;48.832;9.126;2022-11-15T00:47:47;97921.63;;;12.34;nan
19108;BME280;9686;48.832;9.126;2022-11-15T00:50:12;97919.25;;;12.20;nan
19108;BME280;9686;48.832;9.126;2022-11-15T00:52:38;97914.06;;;12.19;nan
19108;BME280;9686;48.832;9.126;2022-11-15T00:55:03;97908.84;;;12.17;nan
19108;BME280;9686;48.832;9.126;2022-11-15T00:57:29;97905.66;;;12.01;nan
19108;BME280;9686;48.832;9.126;2022-11-15T00:59:54;97907.38;;;12.02;nan
19108;BME280;9686;48.832;9.126;2022-11-15T01:02:19;97907.53;;;11.92;nan
19108;BME280;9686;48.832;9.126;2022-11-15T01:04:45;97903.34;;;11.83;nan
19108;BME280;9686;48.832;9.126;2022-11-15T01:07:10;97914.88;;;11.65;nan
19108;BME280;9686;48.832;9.126;2022-11-15T01:09:36;97908.69;;;11.74;nan
19108;BME280;9686;48.832;9.126;2022-11-15T01:12:01;97914.81;;;11.71;nan
19108;BME280;9686;48.832;9.126;2022-11-15T01:14:26;97908.91;;;11.59;nan
19108;BME280;9686;48.832;9.126;2022-11-15T01:16:52;97902.78;;;11.60;nan
19108;BME280;9686;48.832;9.126;2022-11-15T01:19:17;97905.56;;;11.51;nan
19108;BME280;9686;48.832;9.126;2022-11-15T01:21:43;97908.41;;;11.32;nan
19108;BME280;9686;48.832;9.126;2022-11-15T01:24:11;97896.25;;;11.31;nan
19108;BME280;9686;48.832;9.126;2022-11-15T01:26:37;97892.78;;;11.31;nan
19108;BME280;9686;48.832;9.126;2022-11-15T01:29:02;97884.94;;;11.32;nan
19108;BME280;9686;48.832;9.126;2022-11-15T01:31:28;97892.75;;;11.32;nan
19108;BME280;9686;48.832;9.126;2022-11-15T01:33:53;97893.81;;;11.18;nan
19108;BME280;9686;48.832;9.126;2022-11-15T01:36:22;97884.25;;;11.18;nan
19108;BME280;9686;48.832;9.126;2022-11-15T01:38:53;97886.13;;;11.08;nan
19108;BME280;9686;48.832;9.126;2022-11-15T01:41:28;97899.34;;;10.96;nan
19108;BME280;9686;48.832;9.126;2022-11-15T01:43:56;97892.28;;;11.04;nan
19108;BME280;9686;48.832;9.126;2022-11-15T01:46:33;97883.53;;;11.07;nan
19108;BME280;9686;48.832;9.126;2022-11-15T01:49:03;97897.72;;;10.85;nan
19108;BME280;9686;48.832;9.126;2022-11-15T01:51:32;97888.28;;;10.76;nan
19108;BME280;9686;48.832;9.126;2022-11-15T01:54:03;97892.63;;;10.75;nan
19108;BME280;9686;48.832;9.126;2022-11-15T01:56:32;97890.91;;;10.76;nan
19108;BME280;9686;48.832;9.126;2022-11-15T01:59:03;97888.56;;;10.52;nan
19108;BME280;9686;48.832;9.126;2022-11-15T02:01:31;97883.47;;;10.41;nan
19108;BME280;9686;48.832;9.126;2022-11-15T02:04:02;97881.66;;;10.47;nan
19108;BME280;9686;48.832;9.126;2022-11-15T02:06:29;97873.03;;;10.44;nan
19108;BME280;9686;48.832;9.126;2022-11-15T02:08:54;97884.34;;;10.40;nan
19108;BME280;9686;48.832;9.126;2022-11-15T02:11:21;97882.44;;;10.54;nan
19108;BME280;9686;48.832;9.126;2022-11-15T02:13:46;97870.28;;;10.55;nan
19108;BME280;9686;48.832;9.126;2022-11-15T02:18:57;97868.56;;;10.54;nan
19108;BME280;9686;48.832;9.126;2022-11-15T02:21:45;97862.47;;;10.53;nan
19108;BME280;9686;48.832;9.126;2022-11-15T02:27:29;97857.22;;;10.58;nan
19108;BME280;9686;48.832;9.126;2022-11-15T02:32:50;97849.25;;;10.70;nan
19108;BME280;9686;48.832;9.126;2022-11-15T02:35:31;97846.56;;;10.76;nan
19108;BME280;9686;48.832;9.126;2022-11-15T02:38:08;97841.19;;;10.88;nan
19108;BME280;9686;48.832;9.126;2022-11-15T02:40:49;97842.88;;;10.92;nan
19108;BME280;9686;48.832;9.126;2022-11-15T02:43:25;97842.13;;;10.84;nan
19108;BME280;9686;48.832;9.126;2022-11-15T02:49:17;97836.97;;;10.79;nan
19108;BME280;9686;48.832;9.126;2022-11-15T02:51:44;97840.53;;;10.72;nan
19108;BME280;9686;48.832;9.126;2022-11-15T02:54:17;97828.41;;;10.70;nan
19108;BME280;9686;48.832;9.126;2022-11-15T02:56:44;97821.41;;;10.73;nan
19108;BME280;9686;48.832;9.126;2022-11-15T03:02:18;97821.47;;;10.69;nan
19108;BME280;9686;48.832;9.126;2022-11-15T03:07:17;97817.19;;;10.63;nan
19108;BME280;9686;48.832;9.126;2022-11-15T03:09:58;97805.84;;;10.69;nan
19108;BME280;9686;48.832;9.126;2022-11-15T03:12:28;97817.34;;;10.51;nan
19108;BME280;9686;48.832;9.126;2022-11-15T03:15:00;97810.44;;;10.47;nan
19108;BME280;9686;48.832;9.126;2022-11-15T03:17:29;97811.41;;;10.37;nan
19108;BME280;9686;48.832;9.126;2022-11-15T03:20:00;97805.13;;;10.55;nan
19108;BME280;9686;48.832;9.126;2022-11-15T03:22:29;97802.69;;;10.42;nan
19108;BME280;9686;48.832;9.126;2022-11-15T03:25:02;97808.03;;;10.29;nan
19108;BME280;9686;48.832;9.126;2022-11-15T03:27:35;97809.00;;;10.22;nan
19108;BME280;9686;48.832;9.126;2022-11-15T03:30:05;97808.13;;;10.19;nan
19108;BME280;9686;48.832;9.126;2022-11-15T03:32:35;97803.56;;;10.38;nan
19108;BME280;9686;48.832;9.126;2022-11-15T03:35:18;97808.13;;;10.19;nan
19108;BME280;9686;48.832;9.126;2022-11-15T03:37:59;97805.53;;;10.21;nan
19108;BME280;9686;48.832;9.126;2022-11-15T03:40:38;97796.00;;;10.17;nan
19108;BME280;9686;48.832;9.126;2022-11-15T03:45:39;97778.66;;;10.13;nan
19108;BME280;9686;48.832;9.126;2022-11-15T03:48:14;97777.88;;;10.06;nan
19108;BME280;9686;48.832;9.126;2022-11-15T03:50:42;97781.97;;;10.30;nan
19108;BME280;9686;48.832;9.126;2022-11-15T03:53:09;97769.97;;;10.12;nan
19108;BME280;9686;48.832;9.126;2022-11-15T03:55:35;97780.41;;;10.11;nan
19108;BME280;9686;48.832;9.126;2022-11-15T03:58:01;97774.28;;;10.18;nan
19108;BME280;9686;48.832;9.126;2022-11-15T04:00:27;97781.28;;;10.11;nan
19108;BME280;9686;48.832;9.126;2022-11-15T04:02:53;97776.03;;;10.17;nan
19108;BME280;9686;48.832;9.126;2022-11-15T04:05:18;97778.47;;;10.33;nan
19108;BME280;9686;48.832;9.126;2022-11-15T04:07:44;97779.28;;;10.36;nan
19108;BME280;9686;48.832;9.126;2022-11-15T04:10:10;97778.28;;;10.48;nan
19108;BME280;9686;48.832;9.126;2022-11-15T04:12:39;97782.63;;;10.49;nan
19108;BME280;9686;48.832;9.126;2022-11-15T04:15:11;97779.19;;;10.47;nan
19108;BME280;9686;48.832;9.126;2022-11-15T04:20:12;97771.13;;;10.64;nan
19108;BME280;9686;48.832;9.126;2022-11-15T04:22:57;97773.72;;;10.64;nan
19108;BME280;9686;48.832;9.126;2022-11-15T04:25:42;97779.94;;;10.55;nan
19108;BME280;9686;48.832;9.126;2022-11-15T04:28:08;97777.28;;;10.58;nan
19108;BME280;9686;48.832;9.126;2022-11-15T04:30:34;97776.44;;;10.56;nan
19108;BME280;9686;48.832;9.126;2022-11-15T04:32:59;97776.38;;;10.61;nan
19108;BME280;9686;48.832;9.126;2022-11-15T04:35:24;97768.28;;;10.82;nan
19108;BME280;9686;48.832;9.126;2022-11-15T04:37:50;97769.38;;;10.67;nan
19108;BME280;9686;48.832;9.126;2022-11-15T04:40:15;97765.88;;;10.68;nan
19108;BME280;9686;48.832;9.126;2022-11-15T04:42:41;97757.94;;;10.76;nan
19108;BME280;9686;48.832;9.126;2022-11-15T04:45:08;97759.72;;;10.72;nan
19108;BME280;9686;48.832;9.126;2022-11-15T04:47:34;97768.47;;;10.67;nan
19108;BME280;9686;48.832;9.126;2022-11-15T04:49:59;97750.13;;;10.74;nan
19108;BME280;9686;48.832;9.126;2022-11-15T04:52:24;97761.34;;;10.79;nan
19108;BME280;9686;48.832;9.126;2022-11-15T04:54:50;97758.97;;;10.63;nan
19108;BME280;9686;48.832;9.126;2022-11-15T04:57:15;97756.34;;;10.67;nan
19108;BME280;9686;48.832;9.126;2022-11-15T04:59:40;97752.91;;;10.61;nan
19108;BME280;9686;48.832;9.126;2022-11-15T05:02:05;97747.63;;;10.65;nan
19108;BME280;9686;48.832;9.126;2022-11-15T05:04:31;97742.41;;;10.67;nan
19108;BME280;9686;48.832;9.126;2022-11-15T05:06:56;97740.59;;;10.73;nan
19108;BME280;9686;48.832;9.126;2022-11-15T05:09:21;97741.03;;;10.40;nan
19108;BME280;9686;48.832;9.126;2022-11-15T05:11:47;97746.41;;;10.28;nan
19108;BME280;9686;48.832;9.126;2022-11-15T05:14:13;97744.50;;;10.40;nan
19108;BME280;9686;48.832;9.126;2022-11-15T05:16:39;97731.47;;;10.40;nan
19108;BME280;9686;48.832;9.126;2022-11-15T05:19:05;97731.47;;;10.40;nan
19108;BME280;9686;48.832;9.126;2022-11-15T05:21:31;97725.63;;;10.20;nan
19108;BME280;9686;48.832;9.126;2022-11-15T05:23:57;97730.88;;;10.18;nan
19108;BME280;9686;48.832;9.126;2022-11-15T05:26:23;97730.81;;;10.25;nan
19108;BME280;9686;48.832;9.126;2022-11-15T05:28:58;97730.91;;;10.14;nan
19108;BME280;9686;48.832;9.126;2022-11-15T05:31:25;97732.66;;;10.13;nan
19108;BME280;9686;48.832;9.126;2022-11-15T05:33:51;97733.50;;;10.17;nan
19108;BME280;9686;48.832;9.126;2022-11-15T05:36:36;97723.91;;;10.19;nan
19108;BME280;9686;48.832;9.126;2022-11-15T05:39:04;97719.53;;;10.24;nan
19108;BME280;9686;48.832;9.126;2022-11-15T05:41:33;97716.13;;;10.17;nan
19108;BME280;9686;48.832;9.126;2022-11-15T05:44:01;97724.06;;;10.05;nan
19108;BME280;9686;48.832;9.126;2022-11-15T05:46:27;97720.44;;;10.23;nan
19108;BME280;9686;48.832;9.126;2022-11-15T05:48:53;97717.81;;;10.25;nan
19108;BME280;9686;48.832;9.126;2022-11-15T05:51:20;97726.47;;;10.25;nan
19108;BME280;9686;48.832;9.126;2022-11-15T05:53:46;97716.88;;;10.29;nan
19108;BME280;9686;48.832;9.126;2022-11-15T05:56:12;97715.13;;;10.29;nan
19108;BME280;9686;48.832;9.126;2022-11-15T05:58:39;97717.72;;;10.29;nan
19108;BME280;9686;48.832;9.126;2022-11-15T06:01:04;97723.78;;;10.31;nan
19108;BME280;9686;48.832;9.126;2022-11-15T06:03:30;97718.44;;;10.40;nan
19108;BME280;9686;48.832;9.126;2022-11-15T06:05:56;97715.84;;;10.40;nan
19108;BME280;9686;48.832;9.126;2022-11-15T06:08:21;97720.31;;;10.31;nan
19108;BME280;9686;48.832;9.126;2022-11-15T06:10:46;97721.09;;;10.37;nan
19108;BME280;9686;48.832;9.126;2022-11-15T06:13:12;97721.94;;;10.39;nan
19108;BME280;9686;48.832;9.126;2022-11-15T06:15:37;97726.19;;;10.48;nan
19108;BME280;9686;48.832;9.126;2022-11-15T06:18:03;97726.19;;;10.48;nan
19108;BME280;9686;48.832;9.126;2022-11-15T06:20:29;97723.38;;;10.60;nan
19108;BME280;9686;48.832;9.126;2022-11-15T06:22:59;97732.13;;;10.56;nan
19108;BME280;9686;48.832;9.126;2022-11-15T06:25:25;97724.38;;;10.52;nan
19108;BME280;9686;48.832;9.126;2022-11-15T06:27:53;97723.50;;;10.53;nan
19108;BME280;9686;48.832;9.126;2022-11-15T06:30:19;97727.00;;;10.50;nan
19108;BME280;9686;48.832;9.126;2022-11-15T06:32:45;97719.13;;;10.55;nan
19108;BME280;9686;48.832;9.126;2022-11-15T06:35:10;97715.47;;;10.69;nan
19108;BME280;9686;48.832;9.126;2022-11-15T06:37:36;97711.97;;;10.70;nan
19108;BME280;9686;48.832;9.126;2022-11-15T06:40:01;97714.38;;;10.82;nan
19108;BME280;9686;48.832;9.126;2022-11-15T06:42:26;97718.72;;;10.84;nan
19108;BME280;9686;48.832;9.126;2022-11-15T06:44:51;97717.00;;;10.82;nan
19108;BME280;9686;48.832;9.126;2022-11-15T06:47:17;97720.50;;;10.80;nan
19108;BME280;9686;48.832;9.126;2022-11-15T06:49:42;97716.00;;;10.90;nan
19108;BME280;9686;48.832;9.126;2022-11-15T06:52:07;97726.50;;;10.85;nan
19108;BME280;9686;48.832;9.126;2022-11-15T06:54:33;97724.00;;;10.79;nan
19108;BME280;9686;48.832;9.126;2022-11-15T06:56:58;97733.38;;;10.89;nan
19108;BME280;9686;48.832;9.126;2022-11-15T06:59:23;97731.63;;;10.91;nan
19108;BME280;9686;48.832;9.126;2022-11-15T07:01:49;97737.53;;;11.04;nan
19108;BME280;9686;48.832;9.126;2022-11-15T07:04:14;97740.88;;;11.12;nan
19108;BME280;9686;48.832;9.126;2022-11-15T07:06:39;97743.56;;;11.06;nan
19108;BME280;9686;48.832;9.126;2022-11-15T07:09:05;97745.28;;;11.08;nan
19108;BME280;9686;48.832;9.126;2022-11-15T07:11:30;97745.28;;;11.08;nan
19108;BME280;9686;48.832;9.126;2022-11-15T07:13:55;97744.38;;;11.09;nan
19108;BME280;9686;48.832;9.126;2022-11-15T07:16:21;97746.88;;;11.16;nan
19108;BME280;9686;48.832;9.126;2022-11-15T07:18:46;97747.72;;;11.19;nan
19108;BME280;9686;48.832;9.126;2022-11-15T07:21:11;97737.19;;;11.25;nan
19108;BME280;9686;48.832;9.126;2022-11-15T07:23:38;97743.06;;;11.36;nan
19108;BME280;9686;48.832;9.126;2022-11-15T07:26:04;97742.91;;;11.47;nan
19108;BME280;9686;48.832;9.126;2022-11-15T07:28:30;97739.56;;;11.39;nan
19108;BME280;9686;48.832;9.126;2022-11-15T07:30:55;97744.59;;;11.51;nan
19108;BME280;9686;48.832;9.126;2022-11-15T07:33:21;97739.16;;;11.62;nan
19108;BME280;9686;48.832;9.126;2022-11-15T07:35:47;97730.25;;;11.73;nan
19108;BME280;9686;48.832;9.126;2022-11-15T07:38:15;97732.63;;;11.87;nan
19108;BME280;9686;48.832;9.126;2022-11-15T07:40:44;97729.84;;;11.98;nan
19108;BME280;9686;48.832;9.126;2022-11-15T07:43:09;97719.84;;;12.17;nan
19108;BME280;9686;48.832;9.126;2022-11-15T07:45:40;97716.97;;;12.30;nan
19108;BME280;9686;48.832;9.126;2022-11-15T07:48:06;97710.63;;;12.42;nan
19108;BME280;9686;48.832;9.126;2022-11-15T07:50:32;97718.34;;;12.47;nan
19108;BME280;9686;48.832;9.126;2022-11-15T07:52:59;97712.88;;;12.59;nan
19108;BME280;9686;48.832;9.126;2022-11-15T07:55:25;97707.69;;;12.57;nan
19108;BME280;9686;48.832;9.126;2022-11-15T07:57:52;97708.50;;;12.59;nan
19108;BME280;9686;48.832;9.126;2022-11-15T08:00:18;97704.00;;;12.66;nan
19108;BME280;9686;48.832;9.126;2022-11-15T08:02:43;97705.41;;;12.81;nan
19108;BME280;9686;48.832;9.126;2022-11-15T08:05:09;97701.63;;;12.92;nan
19108;BME280;9686;48.832;9.126;2022-11-15T08:07:34;97700.59;;;13.01;nan
19108;BME280;9686;48.832;9.126;2022-11-15T08:09:59;97701.09;;;13.15;nan
19108;BME280;9686;48.832;9.126;2022-11-15T08:12:29;97697.97;;;13.37;nan
19108;BME280;9686;48.832;9.126;2022-11-15T08:14:55;97698.63;;;13.45;nan
19108;BME280;9686;48.832;9.126;2022-11-15T08:17:23;97695.31;;;13.38;nan
19108;BME280;9686;48.832;9.126;2022-11-15T08:19:48;97698.63;;;13.45;nan
19108;BME280;9686;48.832;9.126;2022-11-15T08:22:14;97691.69;;;13.44;nan
19108;BME280;9686;48.832;9.126;2022-11-15T08:24:39;97694.91;;;13.55;nan
19108;BME280;9686;48.832;9.126;2022-11-15T08:27:05;97693.66;;;13.68;nan
19108;BME280;9686;48.832;9.126;2022-11-15T08:29:47;97685.53;;;13.77;nan
19108;BME280;9686;48.832;9.126;2022-11-15T08:32:13;97684.34;;;13.89;nan
19108;BME280;9686;48.832;9.126;2022-11-15T08:34:38;97683.09;;;14.02;nan
19108;BME280;9686;48.832;9.126;2022-11-15T08:37:04;97677.47;;;14.16;nan
19108;BME280;9686;48.832;9.126;2022-11-15T08:39:29;97675.56;;;14.21;nan
19108;BME280;9686;48.832;9.126;2022-11-15T08:41:54;97665.13;;;14.19;nan
19108;BME280;9686;48.832;9.126;2022-11-15T08:44:20;97665.13;;;14.19;nan
19108;BME280;9686;48.832;9.126;2022-11-15T08:46:46;97660.34;;;14.34;nan
19108;BME280;9686;48.832;9.126;2022-11-15T08:49:11;97656.78;;;14.36;nan
19108;BME280;9686;48.832;9.126;2022-11-15T08:51:36;97652.84;;;14.51;nan
19108;BME280;9686;48.832;9.126;2022-11-15T08:54:01;97650.28;;;14.49;nan
19108;BME280;9686;48.832;9.126;2022-11-15T08:56:27;97656.38;;;14.50;nan
19108;BME280;9686;48.832;9.126;2022-11-15T08:58:52;97653.84;;;14.75;nan
19108;BME280;9686;48.832;9.126;2022-11-15T09:01:19;97649.41;;;14.77;nan
19108;BME280;9686;48.832;9.126;2022-11-15T09:03:44;97657.94;;;14.85;nan
19108;BME280;9686;48.832;9.126;2022-11-15T09:06:10;97646.53;;;14.86;nan
19108;BME280;9686;48.832;9.126;2022-11-15T09:08:35;97652.69;;;14.85;nan
19108;BME280;9686;48.832;9.126;2022-11-15T09:11:04;97652.75;;;14.82;nan
19108;BME280;9686;48.832;9.126;2022-11-15T09:13:30;97652.25;;;14.97;nan
19108;BME280;9686;48.832;9.126;2022-11-15T09:16:01;97642.69;;;14.96;nan
19108;BME280;9686;48.832;9.126;2022-11-15T09:18:27;97644.03;;;15.08;nan
19108;BME280;9686;48.832;9.126;2022-11-15T09:20:57;97645.19;;;14.99;nan
19108;BME280;9686;48.832;9.126;2022-11-15T09:23:23;97645.94;;;15.03;nan
19108;BME280;9686;48.832;9.126;2022-11-15T09:25:49;97638.38;;;14.94;nan
19108;BME280;9686;48.832;9.126;2022-11-15T09:28:14;97638.69;;;15.11;nan
19108;BME280;9686;48.832;9.126;2022-11-15T09:30:40;97639.56;;;15.11;nan
19108;BME280;9686;48.832;9.126;2022-11-15T09:33:09;97642.53;;;15.01;nan
19108;BME280;9686;48.832;9.126;2022-11-15T09:35:34;97642.16;;;15.38;nan
19108;BME280;9686;48.832;9.126;2022-11-15T09:38:00;97648.53;;;15.56;nan
19108;BME280;9686;48.832;9.126;2022-11-15T09:40:26;97643.56;;;15.73;nan
19108;BME280;9686;48.832;9.126;2022-11-15T09:43:25;97629.53;;;15.74;nan
19108;BME280;9686;48.832;9.126;2022-11-15T09:46:15;97632.22;;;15.72;nan
19108;BME280;9686;48.832;9.126;2022-11-15T09:48:55;97629.63;;;15.71;nan
19108;BME280;9686;48.832;9.126;2022-11-15T09:51:32;97620.03;;;15.70;nan
19108;BME280;9686;48.832;9.126;2022-11-15T09:56:35;97622.03;;;15.63;nan
19108;BME280;9686;48.832;9.126;2022-11-15T10:01:50;97615.13;;;15.84;nan
19108;BME280;9686;48.832;9.126;2022-11-15T10:04:20;97615.97;;;15.85;nan
19108;BME280;9686;48.832;9.126;2022-11-15T10:10:04;97601.00;;;15.87;nan
19108;BME280;9686;48.832;9.126;2022-11-15T10:12:34;97603.81;;;15.82;nan
19108;BME280;9686;48.832;9.126;2022-11-15T10:15:03;97601.06;;;15.85;nan
19108;BME280;9686;48.832;9.126;2022-11-15T10:20:26;97598.63;;;16.04;nan
19108;BME280;9686;48.832;9.126;2022-11-15T10:23:05;97600.50;;;16.00;nan
19108;BME280;9686;48.832;9.126;2022-11-15T10:25:33;97595.72;;;15.88;nan
19108;BME280;9686;48.832;9.126;2022-11-15T10:30:32;97586.28;;;15.83;nan
19108;BME280;9686;48.832;9.126;2022-11-15T10:32:58;97587.31;;;15.79;nan
19108;BME280;9686;48.832;9.126;2022-11-15T10:35:34;97581.50;;;15.94;nan
19108;BME280;9686;48.832;9.126;2022-11-15T10:38:08;97582.41;;;15.93;nan
19108;BME280;9686;48.832;9.126;2022-11-15T10:40:34;97577.41;;;15.85;nan
19108;BME280;9686;48.832;9.126;2022-11-15T10:43:15;97573.59;;;15.94;nan
19108;BME280;9686;48.832;9.126;2022-11-15T10:45:41;97567.38;;;15.96;nan
19108;BME280;9686;48.832;9.126;2022-11-15T10:50:42;97564.75;;;15.96;nan
19108;BME280;9686;48.832;9.126;2022-11-15T10:53:38;97561.25;;;15.96;nan
19108;BME280;9686;48.832;9.126;2022-11-15T10:56:08;97560.56;;;15.91;nan
19108;BME280;9686;48.832;9.126;2022-11-15T10:58:42;97552.69;;;15.91;nan
19108;BME280;9686;48.832;9.126;2022-11-15T11:01:20;97558.81;;;15.91;nan
19108;BME280;9686;48.832;9.126;2022-11-15T11:04:08;97546.72;;;15.86;nan
19108;BME280;9686;48.832;9.126;2022-11-15T11:06:47;97549.41;;;15.84;nan
19108;BME280;9686;48.832;9.126;2022-11-15T11:09:38;97554.06;;;15.78;nan
19108;BME280;9686;48.832;9.126;2022-11-15T11:12:06;97548.78;;;15.78;nan
19108;BME280;9686;48.832;9.126;2022-11-15T11:14:37;97549.84;;;15.73;nan
19108;BME280;9686;48.832;9.126;2022-11-15T11:22:47;97544.22;;;15.83;nan
19108;BME280;9686;48.832;9.126;2022-11-15T11:25:18;97543.19;;;15.87;nan
19108;BME280;9686;48.832;9.126;2022-11-15T11:33:25;97535.34;;;15.85;nan
19108;BME280;9686;48.832;9.126;2022-11-15T11:36:03;97533.50;;;15.89;nan
19108;BME280;9686;48.832;9.126;2022-11-15T11:38:47;97524.56;;;15.93;nan
19108;BME280;9686;48.832;9.126;2022-11-15T11:44:33;97505.25;;;15.94;nan
19108;BME280;9686;48.832;9.126;2022-11-15T11:47:01;97504.75;;;16.06;nan
19108;BME280;9686;48.832;9.126;2022-11-15T11:49:46;97496.75;;;16.09;nan
19108;BME280;9686;48.832;9.126;2022-11-15T11:52:29;97491.03;;;16.21;nan
19108;BME280;9686;48.832;9.126;2022-11-15T11:55:12;97489.38;;;16.19;nan
19108;BME280;9686;48.832;9.126;2022-11-15T12:00:18;97494.25;;;16.28;nan
19108;BME280;9686;48.832;9.126;2022-11-15T12:05:43;97488.81;;;16.32;nan
19108;BME280;9686;48.832;9.126;2022-11-15T12:10:57;97477.16;;;16.38;nan
19108;BME280;9686;48.832;9.126;2022-11-15T12:13:26;97470.19;;;16.37;nan
19108;BME280;9686;48.832;9.126;2022-11-15T12:16:02;97475.53;;;16.35;nan
19108;BME280;9686;48.832;9.126;2022-11-15T12:18:28;97467.56;;;16.37;nan
19108;BME280;9686;48.832;9.126;2022-11-15T12:20:57;97465.19;;;16.31;nan
19108;BME280;9686;48.832;9.126;2022-11-15T12:23:29;97465.44;;;16.25;nan
19108;BME280;9686;48.832;9.126;2022-11-15T12:26:06;97468.69;;;16.31;nan
19108;BME280;9686;48.832;9.126;2022-11-15T12:28:55;97466.19;;;16.28;nan
19108;BME280;9686;48.832;9.126;2022-11-15T12:34:46;97464.91;;;16.17;nan
19108;BME280;9686;48.832;9.126;2022-11-15T12:36:48;97458.91;;;16.13;nan
19108;BME280;9686;48.832;9.126;2022-11-15T12:39:15;97452.84;;;16.11;nan
19108;BME280;9686;48.832;9.126;2022-11-15T12:47:13;97452.97;;;16.08;nan
19108;BME280;9686;48.832;9.126;2022-11-15T12:49:47;97451.31;;;16.06;nan
19108;BME280;9686;48.832;9.126;2022-11-15T12:52:13;97449.81;;;16.00;nan
19108;BME280;9686;48.832;9.126;2022-11-15T12:59:56;97436.34;;;15.86;nan
19108;BME280;9686;48.832;9.126;2022-11-15T13:02:42;97440.69;;;15.87;nan
19108;BME280;9686;48.832;9.126;2022-11-15T13:27:47;97401.31;;;15.85;nan
19108;BME280;9686;48.832;9.126;2022-11-15T13:30:25;97397.84;;;15.85;nan
19108;BME280;9686;48.832;9.126;2022-11-15T13:32:51;97391.78;;;15.83;nan
19108;BME280;9686;48.832;9.126;2022-11-15T13:35:38;97391.97;;;15.78;nan
19108;BME280;9686;48.832;9.126;2022-11-15T13:38:04;97386.78;;;15.98;nan
19108;BME280;9686;48.832;9.126;2022-11-15T13:40:37;97383.56;;;15.92;nan
19108;BME280;9686;48.832;9.126;2022-11-15T13:45:45;97377.19;;;15.97;nan
19108;BME280;9686;48.832;9.126;2022-11-15T13:48:29;97376.88;;;15.83;nan
19108;BME280;9686;48.832;9.126;2022-11-15T13:50:55;97374.38;;;15.80;nan
19108;BME280;9686;48.832;9.126;2022-11-15T13:53:21;97369.25;;;15.77;nan
19108;BME280;9686;48.832;9.126;2022-11-15T13:55:47;97366.13;;;15.89;nan
19108;BME280;9686;48.832;9.126;2022-11-15T13:58:12;97366.53;;;16.00;nan
19108;BME280;9686;48.832;9.126;2022-11-15T14:00:43;97365.22;;;15.90;nan
19108;BME280;9686;48.832;9.126;2022-11-15T14:03:24;97359.63;;;15.98;nan
19108;BME280;9686;48.832;9.126;2022-11-15T14:06:06;97353.94;;;15.87;nan
19108;BME280;9686;48.832;9.126;2022-11-15T14:08:33;97355.78;;;15.85;nan
19108;BME280;9686;48.832;9.126;2022-11-15T14:11:13;97351.63;;;15.79;nan
19108;BME280;9686;48.832;9.126;2022-11-15T14:13:40;97344.06;;;15.71;nan
19108;BME280;9686;48.832;9.126;2022-11-15T14:16:20;97344.56;;;15.59;nan
19108;BME280;9686;48.832;9.126;2022-11-15T14:21:11;97332.75;;;15.48;nan
19108;BME280;9686;48.832;9.126;2022-11-15T14:23:36;97343.13;;;15.51;nan
19108;BME280;9686;48.832;9.126;2022-11-15T14:26:02;97332.63;;;15.51;nan
19108;BME280;9686;48.832;9.126;2022-11-15T14:28:30;97324.94;;;15.68;nan
19108;BME280;9686;48.832;9.126;2022-11-15T14:30:59;97323.75;;;15.53;nan
19108;BME280;9686;48.832;9.126;2022-11-15T14:33:27;97317.38;;;15.60;nan
19108;BME280;9686;48.832;9.126;2022-11-15T14:35:54;97311.72;;;15.48;nan
19108;BME280;9686;48.832;9.126;2022-11-15T14:38:25;97308.91;;;15.52;nan
19108;BME280;9686;48.832;9.126;2022-11-15T14:40:51;97297.41;;;15.55;nan
19108;BME280;9686;48.832;9.126;2022-11-15T14:43:16;97293.94;;;15.54;nan
19108;BME280;9686;48.832;9.126;2022-11-15T14:45:42;97288.88;;;15.50;nan
19108;BME280;9686;48.832;9.126;2022-11-15T14:48:08;97293.59;;;15.41;nan
19108;BME280;9686;48.832;9.126;2022-11-15T14:50:33;97292.03;;;15.58;nan
19108;BME280;9686;48.832;9.126;2022-11-15T14:53:00;97285.81;;;15.62;nan
19108;BME280;9686;48.832;9.126;2022-11-15T14:55:28;97296.59;;;15.76;nan
19108;BME280;9686;48.832;9.126;2022-11-15T14:57:57;97293.09;;;15.76;nan
19108;BME280;9686;48.832;9.126;2022-11-15T15:00:23;97285.53;;;15.68;nan
19108;BME280;9686;48.832;9.126;2022-11-15T15:02:51;97287.31;;;15.67;nan
19108;BME280;9686;48.832;9.126;2022-11-15T15:05:25;97274.75;;;15.52;nan
19108;BME280;9686;48.832;9.126;2022-11-15T15:07:51;97279.22;;;15.50;nan
19108;BME280;9686;48.832;9.126;2022-11-15T15:10:18;97275.53;;;15.12;nan
19108;BME280;9686;48.832;9.126;2022-11-15T15:12:44;97267.19;;;15.01;nan
19108;BME280;9686;48.832;9.126;2022-11-15T15:15:16;97274.03;;;15.05;nan
19108;BME280;9686;48.832;9.126;2022-11-15T15:17:43;97262.22;;;15.17;nan
19108;BME280;9686;48.832;9.126;2022-11-15T15:20:09;97255.59;;;15.06;nan
19108;BME280;9686;48.832;9.126;2022-11-15T15:22:34;97250.47;;;15.03;nan
19108;BME280;9686;48.832;9.126;2022-11-15T15:25:00;97237.72;;;14.94;nan